sensor_id;sensor_type;location;lat;lon;timestamp;P1;durP1;ratioP1;P2;durP2;ratioP2
71777;SDS011;59609;52.430;4.668;2023-01-16T00:01:13;4.15;;;2.78;;
71777;SDS011;59609;52.430;4.668;2023-01-16T00:03:39;3.72;;;2.55;;
71777;SDS011;59609;52.430;4.668;2023-01-16T00:06:04;4.95;;;3.15;;
71777;SDS011;59609;52.430;4.668;2023-01-16T00:08:30;3.42;;;2.75;;
71777;SDS011;59609;52.430;4.668;2023-01-16T00:10:55;4.40;;;3.35;;
71777;SDS011;59609;52.430;4.668;2023-01-16T00:13:21;4.45;;;3.38;;
71777;SDS011;59609;52.430;4.668;2023-01-16T00:15:47;7.82;;;3.83;;
71777;SDS011;59609;52.430;4.668;2023-01-16T00:18:14;4.72;;;3.13;;
71777;SDS011;59609;52.430;4.668;2023-01-16T00:20:39;5.47;;;3.85;;
71777;SDS011;59609;52.430;4.668;2023-01-16T00:23:05;4.47;;;3.53;;
71777;SDS011;59609;52.430;4.668;2023-01-16T00:25:30;3.47;;;2.53;;
71777;SDS011;59609;52.430;4.668;2023-01-16T00:27:56;3.90;;;2.78;;
71777;SDS011;59609;52.430;4.668;2023-01-16T00:30:21;4.18;;;3.15;;
71777;SDS011;59609;52.430;4.668;2023-01-16T00:32:47;6.35;;;2.67;;
71777;SDS011;59609;52.430;4.668;2023-01-16T00:35:13;4.43;;;2.92;;
71777;SDS011;59609;52.430;4.668;2023-01-16T00:37:38;8.38;;;4.80;;
71777;SDS011;59609;52.430;4.668;2023-01-16T00:40:04;5.10;;;3.45;;
71777;SDS011;59609;52.430;4.668;2023-01-16T00:42:30;6.72;;;4.03;;
71777;SDS011;59609;52.430;4.668;2023-01-16T00:44:55;7.13;;;4.18;;
71777;SDS011;59609;52.430;4.668;2023-01-16T00:47:20;8.57;;;4.35;;
71777;SDS011;59609;52.430;4.668;2023-01-16T00:49:46;7.25;;;4.35;;
71777;SDS011;59609;52.430;4.668;2023-01-16T00:52:11;6.85;;;4.20;;
71777;SDS011;59609;52.430;4.668;2023-01-16T00:54:36;6.43;;;4.57;;
71777;SDS011;59609;52.430;4.668;2023-01-16T00:57:02;7.35;;;4.50;;
71777;SDS011;59609;52.430;4.668;2023-01-16T00:59:27;8.07;;;5.18;;
71777;SDS011;59609;52.430;4.668;2023-01-16T01:01:52;8.70;;;4.72;;
71777;SDS011;59609;52.430;4.668;2023-01-16T01:04:18;5.28;;;3.22;;
71777;SDS011;59609;52.430;4.668;2023-01-16T01:06:43;8.18;;;4.85;;
71777;SDS011;59609;52.430;4.668;2023-01-16T01:09:08;10.52;;;5.85;;
71777;SDS011;59609;52.430;4.668;2023-01-16T01:11:36;7.47;;;5.20;;
71777;SDS011;59609;52.430;4.668;2023-01-16T01:14:01;9.15;;;5.82;;
71777;SDS011;59609;52.430;4.668;2023-01-16T01:16:27;11.75;;;5.25;;
71777;SDS011;59609;52.430;4.668;2023-01-16T01:18:52;13.05;;;6.50;;
71777;SDS011;59609;52.430;4.668;2023-01-16T01:21:18;9.48;;;5.18;;
71777;SDS011;59609;52.430;4.668;2023-01-16T01:23:43;8.00;;;4.82;;
71777;SDS011;59609;52.430;4.668;2023-01-16T01:26:10;6.50;;;4.93;;
71777;SDS011;59609;52.430;4.668;2023-01-16T01:28:37;13.80;;;5.50;;
71777;SDS011;59609;52.430;4.668;2023-01-16T01:31:04;12.20;;;6.80;;
71777;SDS011;59609;52.430;4.668;2023-01-16T01:33:30;11.52;;;6.35;;
71777;SDS011;59609;52.430;4.668;2023-01-16T01:35:56;14.55;;;7.20;;
71777;SDS011;59609;52.430;4.668;2023-01-16T01:38:21;11.32;;;6.30;;
71777;SDS011;59609;52.430;4.668;2023-01-16T01:40:46;10.35;;;6.00;;
71777;SDS011;59609;52.430;4.668;2023-01-16T01:43:13;17.27;;;7.22;;
71777;SDS011;59609;52.430;4.668;2023-01-16T01:45:39;10.60;;;6.55;;
71777;SDS011;59609;52.430;4.668;2023-01-16T01:53:19;14.50;;;8.15;;
71777;SDS011;59609;52.430;4.668;2023-01-16T01:55:59;15.02;;;8.57;;
71777;SDS011;59609;52.430;4.668;2023-01-16T01:58:27;13.90;;;7.82;;
71777;SDS011;59609;52.430;4.668;2023-01-16T02:00:55;14.25;;;6.95;;
71777;SDS011;59609;52.430;4.668;2023-01-16T02:03:39;9.75;;;5.07;;
71777;SDS011;59609;52.430;4.668;2023-01-16T02:06:15;9.85;;;5.63;;
71777;SDS011;59609;52.430;4.668;2023-01-16T02:08:45;9.38;;;6.30;;
71777;SDS011;59609;52.430;4.668;2023-01-16T02:11:12;10.20;;;5.20;;
71777;SDS011;59609;52.430;4.668;2023-01-16T02:13:54;7.18;;;5.05;;
71777;SDS011;59609;52.430;4.668;2023-01-16T02:16:21;12.60;;;6.57;;
71777;SDS011;59609;52.430;4.668;2023-01-16T02:19:07;12.82;;;6.97;;
71777;SDS011;59609;52.430;4.668;2023-01-16T02:38:11;13.35;;;5.93;;
71777;SDS011;59609;52.430;4.668;2023-01-16T02:41:03;20.25;;;6.70;;
71777;SDS011;59609;52.430;4.668;2023-01-16T02:44:02;11.68;;;5.95;;
71777;SDS011;59609;52.430;4.668;2023-01-16T02:46:36;17.20;;;7.38;;
71777;SDS011;59609;52.430;4.668;2023-01-16T02:49:19;13.63;;;6.85;;
71777;SDS011;59609;52.430;4.668;2023-01-16T02:52:24;16.55;;;7.65;;
71777;SDS011;59609;52.430;4.668;2023-01-16T02:55:04;22.98;;;7.70;;
71777;SDS011;59609;52.430;4.668;2023-01-16T02:57:37;21.88;;;7.78;;
71777;SDS011;59609;52.430;4.668;2023-01-16T03:00:07;17.58;;;7.22;;
71777;SDS011;59609;52.430;4.668;2023-01-16T03:02:34;16.55;;;7.88;;
71777;SDS011;59609;52.430;4.668;2023-01-16T03:04:59;17.85;;;8.45;;
71777;SDS011;59609;52.430;4.668;2023-01-16T03:07:44;17.85;;;7.20;;
71777;SDS011;59609;52.430;4.668;2023-01-16T03:13:18;15.23;;;6.90;;
71777;SDS011;59609;52.430;4.668;2023-01-16T03:16:14;10.05;;;5.63;;
71777;SDS011;59609;52.430;4.668;2023-01-16T03:24:21;12.05;;;6.70;;
71777;SDS011;59609;52.430;4.668;2023-01-16T03:38:35;19.65;;;8.98;;
71777;SDS011;59609;52.430;4.668;2023-01-16T03:41:03;20.95;;;9.40;;
71777;SDS011;59609;52.430;4.668;2023-01-16T03:43:34;16.23;;;8.60;;
71777;SDS011;59609;52.430;4.668;2023-01-16T03:46:07;17.63;;;9.18;;
71777;SDS011;59609;52.430;4.668;2023-01-16T03:48:56;10.93;;;6.22;;
71777;SDS011;59609;52.430;4.668;2023-01-16T03:51:28;13.35;;;6.43;;
71777;SDS011;59609;52.430;4.668;2023-01-16T03:54:06;12.82;;;6.00;;
71777;SDS011;59609;52.430;4.668;2023-01-16T03:56:40;12.85;;;5.55;;
71777;SDS011;59609;52.430;4.668;2023-01-16T03:59:10;18.67;;;5.68;;
71777;SDS011;59609;52.430;4.668;2023-01-16T04:01:43;12.70;;;4.65;;
71777;SDS011;59609;52.430;4.668;2023-01-16T04:04:30;15.07;;;5.78;;
71777;SDS011;59609;52.430;4.668;2023-01-16T04:07:03;14.23;;;4.60;;
71777;SDS011;59609;52.430;4.668;2023-01-16T04:12:04;9.50;;;4.43;;
71777;SDS011;59609;52.430;4.668;2023-01-16T04:14:32;8.98;;;4.53;;
71777;SDS011;59609;52.430;4.668;2023-01-16T04:16:59;14.55;;;5.95;;
71777;SDS011;59609;52.430;4.668;2023-01-16T04:19:26;18.50;;;8.10;;
71777;SDS011;59609;52.430;4.668;2023-01-16T04:21:55;21.90;;;7.88;;
71777;SDS011;59609;52.430;4.668;2023-01-16T04:24:20;15.85;;;6.55;;
71777;SDS011;59609;52.430;4.668;2023-01-16T04:26:46;17.55;;;7.78;;
71777;SDS011;59609;52.430;4.668;2023-01-16T04:29:11;18.70;;;7.25;;
71777;SDS011;59609;52.430;4.668;2023-01-16T04:31:37;17.15;;;6.72;;
71777;SDS011;59609;52.430;4.668;2023-01-16T04:34:02;21.52;;;7.65;;
71777;SDS011;59609;52.430;4.668;2023-01-16T04:36:28;18.73;;;6.63;;
71777;SDS011;59609;52.430;4.668;2023-01-16T04:38:56;18.83;;;6.88;;
71777;SDS011;59609;52.430;4.668;2023-01-16T04:41:21;12.90;;;5.93;;
71777;SDS011;59609;52.430;4.668;2023-01-16T04:44:02;10.27;;;5.00;;
71777;SDS011;59609;52.430;4.668;2023-01-16T04:46:29;11.63;;;5.40;;
71777;SDS011;59609;52.430;4.668;2023-01-16T04:48:54;13.32;;;4.95;;
71777;SDS011;59609;52.430;4.668;2023-01-16T04:51:20;16.48;;;4.90;;
71777;SDS011;59609;52.430;4.668;2023-01-16T04:53:45;10.48;;;5.35;;
71777;SDS011;59609;52.430;4.668;2023-01-16T04:56:10;8.48;;;3.92;;
71777;SDS011;59609;52.430;4.668;2023-01-16T04:58:36;8.43;;;4.40;;
71777;SDS011;59609;52.430;4.668;2023-01-16T05:01:01;14.02;;;4.53;;
71777;SDS011;59609;52.430;4.668;2023-01-16T05:03:26;9.45;;;4.32;;
71777;SDS011;59609;52.430;4.668;2023-01-16T05:05:52;9.20;;;3.40;;
71777;SDS011;59609;52.430;4.668;2023-01-16T05:08:17;8.55;;;3.45;;
71777;SDS011;59609;52.430;4.668;2023-01-16T05:10:43;11.32;;;3.80;;
71777;SDS011;59609;52.430;4.668;2023-01-16T05:13:09;7.78;;;3.08;;
71777;SDS011;59609;52.430;4.668;2023-01-16T05:15:34;5.93;;;3.13;;
71777;SDS011;59609;52.430;4.668;2023-01-16T05:17:59;8.00;;;3.33;;
71777;SDS011;59609;52.430;4.668;2023-01-16T05:20:25;6.63;;;3.67;;
71777;SDS011;59609;52.430;4.668;2023-01-16T05:22:50;5.90;;;2.45;;
71777;SDS011;59609;52.430;4.668;2023-01-16T05:25:15;9.20;;;2.80;;
71777;SDS011;59609;52.430;4.668;2023-01-16T05:27:41;8.43;;;3.05;;
71777;SDS011;59609;52.430;4.668;2023-01-16T05:30:06;10.65;;;2.92;;
71777;SDS011;59609;52.430;4.668;2023-01-16T05:32:35;5.75;;;2.40;;
71777;SDS011;59609;52.430;4.668;2023-01-16T05:35:00;5.38;;;2.35;;
71777;SDS011;59609;52.430;4.668;2023-01-16T05:37:27;6.90;;;2.10;;
71777;SDS011;59609;52.430;4.668;2023-01-16T05:39:53;5.45;;;2.03;;
71777;SDS011;59609;52.430;4.668;2023-01-16T05:42:21;7.30;;;2.20;;
71777;SDS011;59609;52.430;4.668;2023-01-16T05:44:49;7.68;;;1.92;;
71777;SDS011;59609;52.430;4.668;2023-01-16T05:47:18;6.55;;;1.75;;
71777;SDS011;59609;52.430;4.668;2023-01-16T05:49:44;4.22;;;1.60;;
71777;SDS011;59609;52.430;4.668;2023-01-16T05:52:10;5.75;;;1.52;;
71777;SDS011;59609;52.430;4.668;2023-01-16T05:54:36;2.45;;;1.35;;
71777;SDS011;59609;52.430;4.668;2023-01-16T05:57:01;4.35;;;1.50;;
71777;SDS011;59609;52.430;4.668;2023-01-16T05:59:27;3.95;;;1.38;;
71777;SDS011;59609;52.430;4.668;2023-01-16T06:01:55;7.45;;;1.20;;
71777;SDS011;59609;52.430;4.668;2023-01-16T06:04:22;5.03;;;1.35;;
71777;SDS011;59609;52.430;4.668;2023-01-16T06:06:47;1.65;;;1.25;;
71777;SDS011;59609;52.430;4.668;2023-01-16T06:09:13;9.27;;;1.38;;
71777;SDS011;59609;52.430;4.668;2023-01-16T06:11:38;2.95;;;1.23;;
71777;SDS011;59609;52.430;4.668;2023-01-16T06:14:04;5.35;;;1.70;;
71777;SDS011;59609;52.430;4.668;2023-01-16T06:16:32;3.33;;;1.30;;
71777;SDS011;59609;52.430;4.668;2023-01-16T06:18:59;2.33;;;1.20;;
71777;SDS011;59609;52.430;4.668;2023-01-16T06:21:25;8.88;;;1.42;;
71777;SDS011;59609;52.430;4.668;2023-01-16T06:23:51;5.28;;;1.20;;
71777;SDS011;59609;52.430;4.668;2023-01-16T06:26:16;4.22;;;1.20;;
71777;SDS011;59609;52.430;4.668;2023-01-16T06:28:41;5.97;;;1.02;;
71777;SDS011;59609;52.430;4.668;2023-01-16T06:31:07;5.18;;;1.45;;
71777;SDS011;59609;52.430;4.668;2023-01-16T06:33:33;4.93;;;1.17;;
71777;SDS011;59609;52.430;4.668;2023-01-16T06:35:59;4.78;;;1.15;;
71777;SDS011;59609;52.430;4.668;2023-01-16T06:38:24;5.45;;;1.25;;
71777;SDS011;59609;52.430;4.668;2023-01-16T06:40:50;3.65;;;1.15;;
71777;SDS011;59609;52.430;4.668;2023-01-16T06:43:20;3.30;;;1.42;;
71777;SDS011;59609;52.430;4.668;2023-01-16T06:45:49;2.92;;;1.15;;
71777;SDS011;59609;52.430;4.668;2023-01-16T06:48:15;3.25;;;1.10;;
71777;SDS011;59609;52.430;4.668;2023-01-16T06:50:40;3.70;;;1.20;;
71777;SDS011;59609;52.430;4.668;2023-01-16T06:53:06;3.63;;;1.33;;
71777;SDS011;59609;52.430;4.668;2023-01-16T06:55:32;7.03;;;1.30;;
71777;SDS011;59609;52.430;4.668;2023-01-16T06:57:57;3.10;;;1.30;;
71777;SDS011;59609;52.430;4.668;2023-01-16T07:00:23;3.25;;;1.13;;
71777;SDS011;59609;52.430;4.668;2023-01-16T07:02:50;5.00;;;1.30;;
71777;SDS011;59609;52.430;4.668;2023-01-16T07:05:19;7.30;;;1.40;;
71777;SDS011;59609;52.430;4.668;2023-01-16T07:07:45;4.57;;;1.45;;
71777;SDS011;59609;52.430;4.668;2023-01-16T07:10:10;3.63;;;1.52;;
71777;SDS011;59609;52.430;4.668;2023-01-16T07:12:36;4.88;;;1.23;;
71777;SDS011;59609;52.430;4.668;2023-01-16T07:15:01;3.30;;;1.83;;
71777;SDS011;59609;52.430;4.668;2023-01-16T07:17:45;2.45;;;1.50;;
71777;SDS011;59609;52.430;4.668;2023-01-16T07:20:30;7.60;;;1.77;;
71777;SDS011;59609;52.430;4.668;2023-01-16T07:23:16;7.28;;;2.13;;
71777;SDS011;59609;52.430;4.668;2023-01-16T07:25:46;3.00;;;1.40;;
71777;SDS011;59609;52.430;4.668;2023-01-16T07:28:12;5.63;;;1.70;;
71777;SDS011;59609;52.430;4.668;2023-01-16T07:30:39;6.47;;;1.60;;
71777;SDS011;59609;52.430;4.668;2023-01-16T07:33:04;7.57;;;1.83;;
71777;SDS011;59609;52.430;4.668;2023-01-16T07:35:30;3.38;;;1.92;;
71777;SDS011;59609;52.430;4.668;2023-01-16T07:37:55;7.93;;;1.77;;
71777;SDS011;59609;52.430;4.668;2023-01-16T07:40:22;5.90;;;1.73;;
71777;SDS011;59609;52.430;4.668;2023-01-16T07:42:49;7.88;;;1.50;;
71777;SDS011;59609;52.430;4.668;2023-01-16T07:45:16;8.30;;;2.10;;
71777;SDS011;59609;52.430;4.668;2023-01-16T07:47:42;3.97;;;1.55;;
71777;SDS011;59609;52.430;4.668;2023-01-16T07:50:08;3.88;;;2.10;;
71777;SDS011;59609;52.430;4.668;2023-01-16T07:52:33;5.20;;;1.50;;
71777;SDS011;59609;52.430;4.668;2023-01-16T07:54:59;2.65;;;1.75;;
71777;SDS011;59609;52.430;4.668;2023-01-16T07:57:24;3.92;;;1.52;;
71777;SDS011;59609;52.430;4.668;2023-01-16T07:59:50;7.57;;;1.48;;
71777;SDS011;59609;52.430;4.668;2023-01-16T08:02:16;2.78;;;1.67;;
71777;SDS011;59609;52.430;4.668;2023-01-16T08:04:41;1.67;;;1.33;;
71777;SDS011;59609;52.430;4.668;2023-01-16T08:07:06;4.22;;;1.70;;
71777;SDS011;59609;52.430;4.668;2023-01-16T08:09:32;3.83;;;1.52;;
71777;SDS011;59609;52.430;4.668;2023-01-16T08:11:57;6.65;;;1.90;;
71777;SDS011;59609;52.430;4.668;2023-01-16T08:14:23;4.20;;;1.42;;
71777;SDS011;59609;52.430;4.668;2023-01-16T08:16:50;4.15;;;1.73;;
71777;SDS011;59609;52.430;4.668;2023-01-16T08:19:16;1.85;;;1.48;;
71777;SDS011;59609;52.430;4.668;2023-01-16T08:21:41;2.00;;;1.00;;
71777;SDS011;59609;52.430;4.668;2023-01-16T08:24:06;1.58;;;1.13;;
71777;SDS011;59609;52.430;4.668;2023-01-16T08:26:32;1.40;;;1.08;;
71777;SDS011;59609;52.430;4.668;2023-01-16T08:28:58;1.55;;;0.95;;
71777;SDS011;59609;52.430;4.668;2023-01-16T08:31:24;2.75;;;1.20;;
71777;SDS011;59609;52.430;4.668;2023-01-16T08:33:50;2.45;;;1.38;;
71777;SDS011;59609;52.430;4.668;2023-01-16T08:36:15;3.45;;;1.20;;
71777;SDS011;59609;52.430;4.668;2023-01-16T08:38:42;3.42;;;1.30;;
71777;SDS011;59609;52.430;4.668;2023-01-16T08:41:08;3.50;;;1.00;;
71777;SDS011;59609;52.430;4.668;2023-01-16T08:43:52;2.75;;;1.45;;
71777;SDS011;59609;52.430;4.668;2023-01-16T08:46:36;4.05;;;1.50;;
71777;SDS011;59609;52.430;4.668;2023-01-16T08:49:20;3.13;;;1.67;;
71777;SDS011;59609;52.430;4.668;2023-01-16T08:52:04;2.40;;;1.65;;
71777;SDS011;59609;52.430;4.668;2023-01-16T08:54:31;3.38;;;1.80;;
71777;SDS011;59609;52.430;4.668;2023-01-16T08:56:56;2.90;;;1.73;;
71777;SDS011;59609;52.430;4.668;2023-01-16T08:59:21;2.58;;;1.65;;
71777;SDS011;59609;52.430;4.668;2023-01-16T09:01:47;2.80;;;2.00;;
71777;SDS011;59609;52.430;4.668;2023-01-16T09:04:12;4.10;;;2.17;;
71777;SDS011;59609;52.430;4.668;2023-01-16T09:06:37;4.22;;;2.03;;
71777;SDS011;59609;52.430;4.668;2023-01-16T09:09:04;4.15;;;2.63;;
71777;SDS011;59609;52.430;4.668;2023-01-16T09:11:31;13.05;;;3.15;;
71777;SDS011;59609;52.430;4.668;2023-01-16T09:14:16;2.60;;;2.10;;
71777;SDS011;59609;52.430;4.668;2023-01-16T09:16:41;4.53;;;1.92;;
71777;SDS011;59609;52.430;4.668;2023-01-16T09:19:06;7.53;;;2.60;;
71777;SDS011;59609;52.430;4.668;2023-01-16T09:21:32;4.15;;;2.38;;
71777;SDS011;59609;52.430;4.668;2023-01-16T09:23:57;9.13;;;2.80;;
71777;SDS011;59609;52.430;4.668;2023-01-16T09:26:23;4.50;;;2.65;;
71777;SDS011;59609;52.430;4.668;2023-01-16T09:28:48;4.53;;;2.72;;
71777;SDS011;59609;52.430;4.668;2023-01-16T09:31:14;4.93;;;3.28;;
71777;SDS011;59609;52.430;4.668;2023-01-16T09:33:44;4.57;;;2.90;;
71777;SDS011;59609;52.430;4.668;2023-01-16T09:36:09;3.70;;;2.38;;
71777;SDS011;59609;52.430;4.668;2023-01-16T09:38:35;4.50;;;2.85;;
71777;SDS011;59609;52.430;4.668;2023-01-16T09:41:01;4.18;;;2.45;;
71777;SDS011;59609;52.430;4.668;2023-01-16T09:48:33;5.70;;;3.15;;
71777;SDS011;59609;52.430;4.668;2023-01-16T09:51:05;5.70;;;3.10;;
71777;SDS011;59609;52.430;4.668;2023-01-16T09:53:43;4.93;;;3.10;;
71777;SDS011;59609;52.430;4.668;2023-01-16T09:56:33;6.28;;;3.28;;
71777;SDS011;59609;52.430;4.668;2023-01-16T09:59:36;6.95;;;3.40;;
71777;SDS011;59609;52.430;4.668;2023-01-16T10:04:52;6.13;;;3.20;;
71777;SDS011;59609;52.430;4.668;2023-01-16T10:15:45;6.57;;;3.58;;
71777;SDS011;59609;52.430;4.668;2023-01-16T10:18:40;6.68;;;4.07;;
71777;SDS011;59609;52.430;4.668;2023-01-16T10:24:00;6.65;;;3.95;;
71777;SDS011;59609;52.430;4.668;2023-01-16T10:26:41;6.03;;;4.05;;
71777;SDS011;59609;52.430;4.668;2023-01-16T10:37:21;6.05;;;3.50;;
71777;SDS011;59609;52.430;4.668;2023-01-16T10:39:47;7.72;;;3.17;;
71777;SDS011;59609;52.430;4.668;2023-01-16T10:42:16;4.72;;;3.22;;
71777;SDS011;59609;52.430;4.668;2023-01-16T10:47:52;4.47;;;2.92;;
71777;SDS011;59609;52.430;4.668;2023-01-16T10:50:36;4.63;;;2.65;;
71777;SDS011;59609;52.430;4.668;2023-01-16T10:53:03;5.88;;;2.83;;
71777;SDS011;59609;52.430;4.668;2023-01-16T10:55:30;4.93;;;2.55;;
71777;SDS011;59609;52.430;4.668;2023-01-16T10:58:00;5.07;;;2.47;;
71777;SDS011;59609;52.430;4.668;2023-01-16T11:00:37;3.70;;;2.22;;
71777;SDS011;59609;52.430;4.668;2023-01-16T11:08:14;1.90;;;1.63;;
71777;SDS011;59609;52.430;4.668;2023-01-16T11:10:46;1.52;;;1.10;;
71777;SDS011;59609;52.430;4.668;2023-01-16T11:13:14;2.55;;;1.35;;
71777;SDS011;59609;52.430;4.668;2023-01-16T11:16:04;1.70;;;1.60;;
71777;SDS011;59609;52.430;4.668;2023-01-16T11:18:49;3.42;;;1.13;;
71777;SDS011;59609;52.430;4.668;2023-01-16T11:21:16;4.00;;;1.67;;
71777;SDS011;59609;52.430;4.668;2023-01-16T11:23:57;2.25;;;1.33;;
71777;SDS011;59609;52.430;4.668;2023-01-16T11:26:25;1.67;;;1.20;;
71777;SDS011;59609;52.430;4.668;2023-01-16T11:28:52;2.47;;;1.40;;
71777;SDS011;59609;52.430;4.668;2023-01-16T11:31:22;1.98;;;1.40;;
71777;SDS011;59609;52.430;4.668;2023-01-16T11:33:51;2.00;;;1.23;;
71777;SDS011;59609;52.430;4.668;2023-01-16T11:36:23;1.73;;;1.30;;
71777;SDS011;59609;52.430;4.668;2023-01-16T11:38:49;1.63;;;1.10;;
71777;SDS011;59609;52.430;4.668;2023-01-16T11:41:20;3.05;;;1.40;;
71777;SDS011;59609;52.430;4.668;2023-01-16T11:47:01;1.25;;;1.15;;
71777;SDS011;59609;52.430;4.668;2023-01-16T11:49:27;1.45;;;1.20;;
71777;SDS011;59609;52.430;4.668;2023-01-16T11:51:59;1.40;;;1.27;;
71777;SDS011;59609;52.430;4.668;2023-01-16T11:54:28;5.38;;;1.90;;
71777;SDS011;59609;52.430;4.668;2023-01-16T11:57:01;1.95;;;1.40;;
71777;SDS011;59609;52.430;4.668;2023-01-16T12:02:48;1.75;;;1.20;;
71777;SDS011;59609;52.430;4.668;2023-01-16T12:05:34;2.20;;;1.75;;
71777;SDS011;59609;52.430;4.668;2023-01-16T12:14:28;3.45;;;1.13;;
71777;SDS011;59609;52.430;4.668;2023-01-16T12:17:09;3.92;;;1.15;;
71777;SDS011;59609;52.430;4.668;2023-01-16T12:22:35;3.55;;;1.75;;
71777;SDS011;59609;52.430;4.668;2023-01-16T12:33:28;1.85;;;1.60;;
71777;SDS011;59609;52.430;4.668;2023-01-16T12:42:03;3.15;;;1.90;;
71777;SDS011;59609;52.430;4.668;2023-01-16T12:45:26;1.90;;;1.70;;
71777;SDS011;59609;52.430;4.668;2023-01-16T12:58:58;2.80;;;1.70;;
71777;SDS011;59609;52.430;4.668;2023-01-16T13:01:30;3.45;;;2.03;;
71777;SDS011;59609;52.430;4.668;2023-01-16T13:09:17;4.95;;;2.97;;
71777;SDS011;59609;52.430;4.668;2023-01-16T13:11:57;2.58;;;2.10;;
71777;SDS011;59609;52.430;4.668;2023-01-16T13:14:42;3.42;;;2.13;;
71777;SDS011;59609;52.430;4.668;2023-01-16T13:17:12;5.72;;;2.00;;
71777;SDS011;59609;52.430;4.668;2023-01-16T13:19:44;3.30;;;2.33;;
71777;SDS011;59609;52.430;4.668;2023-01-16T13:22:14;2.53;;;2.30;;
71777;SDS011;59609;52.430;4.668;2023-01-16T13:25:59;5.95;;;2.60;;
71777;SDS011;59609;52.430;4.668;2023-01-16T13:28:02;4.32;;;2.50;;
71777;SDS011;59609;52.430;4.668;2023-01-16T13:30:32;3.05;;;2.20;;
71777;SDS011;59609;52.430;4.668;2023-01-16T13:43:59;3.60;;;2.92;;
71777;SDS011;59609;52.430;4.668;2023-01-16T13:46:50;5.15;;;3.15;;
71777;SDS011;59609;52.430;4.668;2023-01-16T13:49:20;4.47;;;2.75;;
71777;SDS011;59609;52.430;4.668;2023-01-16T13:51:49;4.28;;;2.60;;
71777;SDS011;59609;52.430;4.668;2023-01-16T13:54:21;3.63;;;2.95;;
71777;SDS011;59609;52.430;4.668;2023-01-16T13:56:59;7.10;;;3.75;;
71777;SDS011;59609;52.430;4.668;2023-01-16T14:01:53;4.60;;;3.40;;
71777;SDS011;59609;52.430;4.668;2023-01-16T14:06:52;4.88;;;3.28;;
71777;SDS011;59609;52.430;4.668;2023-01-16T14:09:58;3.72;;;3.10;;
71777;SDS011;59609;52.430;4.668;2023-01-16T14:12:35;4.78;;;3.05;;
71777;SDS011;59609;52.430;4.668;2023-01-16T14:15:18;6.90;;;3.25;;
71777;SDS011;59609;52.430;4.668;2023-01-16T14:18:14;4.45;;;2.90;;
71777;SDS011;59609;52.430;4.668;2023-01-16T14:26:08;3.55;;;2.85;;
71777;SDS011;59609;52.430;4.668;2023-01-16T14:28:39;3.50;;;2.70;;
71777;SDS011;59609;52.430;4.668;2023-01-16T14:31:13;3.10;;;2.65;;
71777;SDS011;59609;52.430;4.668;2023-01-16T14:33:46;3.65;;;2.70;;
71777;SDS011;59609;52.430;4.668;2023-01-16T14:36:12;3.80;;;2.17;;
71777;SDS011;59609;52.430;4.668;2023-01-16T14:38:39;2.45;;;2.08;;
71777;SDS011;59609;52.430;4.668;2023-01-16T14:41:14;2.90;;;2.60;;
71777;SDS011;59609;52.430;4.668;2023-01-16T14:44:02;4.38;;;2.50;;
71777;SDS011;59609;52.430;4.668;2023-01-16T14:47:05;2.65;;;2.42;;
71777;SDS011;59609;52.430;4.668;2023-01-16T14:49:58;2.78;;;2.40;;
71777;SDS011;59609;52.430;4.668;2023-01-16T14:52:48;2.35;;;2.05;;
71777;SDS011;59609;52.430;4.668;2023-01-16T14:55:45;3.75;;;2.95;;
71777;SDS011;59609;52.430;4.668;2023-01-16T14:58:15;5.80;;;2.72;;
71777;SDS011;59609;52.430;4.668;2023-01-16T15:01:01;5.93;;;2.90;;
71777;SDS011;59609;52.430;4.668;2023-01-16T15:03:57;3.90;;;2.83;;
71777;SDS011;59609;52.430;4.668;2023-01-16T15:06:24;5.13;;;2.90;;
71777;SDS011;59609;52.430;4.668;2023-01-16T15:09:03;3.72;;;2.55;;
71777;SDS011;59609;52.430;4.668;2023-01-16T15:11:30;4.55;;;2.67;;
71777;SDS011;59609;52.430;4.668;2023-01-16T15:14:11;5.78;;;3.58;;
71777;SDS011;59609;52.430;4.668;2023-01-16T15:17:13;7.28;;;3.92;;
71777;SDS011;59609;52.430;4.668;2023-01-16T15:23:18;1.33;;;1.23;;
71777;SDS011;59609;52.430;4.668;2023-01-16T15:31:24;0.93;;;0.80;;
71777;SDS011;59609;52.430;4.668;2023-01-16T15:36:37;0.85;;;0.80;;
71777;SDS011;59609;52.430;4.668;2023-01-16T15:39:22;0.70;;;0.70;;
71777;SDS011;59609;52.430;4.668;2023-01-16T15:42:04;0.80;;;0.80;;
71777;SDS011;59609;52.430;4.668;2023-01-16T15:44:56;0.60;;;0.60;;
71777;SDS011;59609;52.430;4.668;2023-01-16T15:50:34;1.40;;;0.88;;
71777;SDS011;59609;52.430;4.668;2023-01-16T15:53:10;1.60;;;1.33;;
71777;SDS011;59609;52.430;4.668;2023-01-16T15:55:37;1.33;;;1.20;;
71777;SDS011;59609;52.430;4.668;2023-01-16T15:58:04;2.97;;;1.20;;
71777;SDS011;59609;52.430;4.668;2023-01-16T16:00:38;2.63;;;1.10;;
71777;SDS011;59609;52.430;4.668;2023-01-16T16:03:10;2.78;;;1.30;;
71777;SDS011;59609;52.430;4.668;2023-01-16T16:05:39;1.75;;;1.00;;
71777;SDS011;59609;52.430;4.668;2023-01-16T16:10:38;3.55;;;1.60;;
71777;SDS011;59609;52.430;4.668;2023-01-16T16:13:22;2.58;;;1.42;;
71777;SDS011;59609;52.430;4.668;2023-01-16T16:15:52;5.15;;;1.45;;
71777;SDS011;59609;52.430;4.668;2023-01-16T16:18:56;1.67;;;1.40;;
71777;SDS011;59609;52.430;4.668;2023-01-16T16:21:24;2.38;;;1.73;;
71777;SDS011;59609;52.430;4.668;2023-01-16T16:23:58;2.13;;;1.70;;
71777;SDS011;59609;52.430;4.668;2023-01-16T16:26:26;3.00;;;2.08;;
71777;SDS011;59609;52.430;4.668;2023-01-16T16:28:52;3.25;;;1.73;;
71777;SDS011;59609;52.430;4.668;2023-01-16T16:34:02;2.17;;;1.50;;
71777;SDS011;59609;52.430;4.668;2023-01-16T16:36:34;1.30;;;1.20;;
71777;SDS011;59609;52.430;4.668;2023-01-16T16:39:01;1.27;;;1.10;;
71777;SDS011;59609;52.430;4.668;2023-01-16T16:44:25;1.40;;;1.30;;
71777;SDS011;59609;52.430;4.668;2023-01-16T16:46:58;1.20;;;1.10;;
71777;SDS011;59609;52.430;4.668;2023-01-16T16:51:49;3.13;;;0.93;;
71777;SDS011;59609;52.430;4.668;2023-01-16T16:54:15;2.22;;;0.70;;
71777;SDS011;59609;52.430;4.668;2023-01-16T16:56:43;0.65;;;0.63;;
71777;SDS011;59609;52.430;4.668;2023-01-16T16:59:16;0.70;;;0.60;;
71777;SDS011;59609;52.430;4.668;2023-01-16T17:01:47;5.85;;;1.00;;
71777;SDS011;59609;52.430;4.668;2023-01-16T17:04:15;1.73;;;0.47;;
71777;SDS011;59609;52.430;4.668;2023-01-16T17:06:42;0.77;;;0.60;;
71777;SDS011;59609;52.430;4.668;2023-01-16T17:09:11;0.60;;;0.60;;
71777;SDS011;59609;52.430;4.668;2023-01-16T17:11:39;3.60;;;0.77;;
71777;SDS011;59609;52.430;4.668;2023-01-16T17:14:05;2.25;;;0.80;;
71777;SDS011;59609;52.430;4.668;2023-01-16T17:16:31;2.42;;;0.80;;
71777;SDS011;59609;52.430;4.668;2023-01-16T17:19:02;1.70;;;0.60;;
71777;SDS011;59609;52.430;4.668;2023-01-16T17:21:36;2.70;;;0.65;;
71777;SDS011;59609;52.430;4.668;2023-01-16T17:24:02;2.17;;;0.70;;
71777;SDS011;59609;52.430;4.668;2023-01-16T17:26:28;1.92;;;0.95;;
71777;SDS011;59609;52.430;4.668;2023-01-16T17:28:53;3.10;;;0.98;;
71777;SDS011;59609;52.430;4.668;2023-01-16T17:31:20;1.08;;;0.70;;
71777;SDS011;59609;52.430;4.668;2023-01-16T17:33:46;0.80;;;0.68;;
71777;SDS011;59609;52.430;4.668;2023-01-16T17:36:13;0.50;;;0.50;;
71777;SDS011;59609;52.430;4.668;2023-01-16T17:38:47;1.17;;;0.73;;
71777;SDS011;59609;52.430;4.668;2023-01-16T17:41:17;1.25;;;0.80;;
71777;SDS011;59609;52.430;4.668;2023-01-16T17:43:48;5.07;;;0.73;;
71777;SDS011;59609;52.430;4.668;2023-01-16T17:46:32;0.82;;;0.40;;
71777;SDS011;59609;52.430;4.668;2023-01-16T17:48:57;2.25;;;0.70;;
71777;SDS011;59609;52.430;4.668;2023-01-16T17:51:23;1.27;;;0.65;;
71777;SDS011;59609;52.430;4.668;2023-01-16T17:53:49;0.60;;;0.60;;
71777;SDS011;59609;52.430;4.668;2023-01-16T17:56:16;3.05;;;0.90;;
71777;SDS011;59609;52.430;4.668;2023-01-16T17:58:43;4.88;;;1.05;;
71777;SDS011;59609;52.430;4.668;2023-01-16T18:03:56;1.40;;;0.85;;